This is the latest recevied weather packets stored in our database for station/object SR2GKG-13. If no packets are shown the sender has not sent any weather packets the latest 10 day(s).
| Time | Temp. | Humidity | Pressure | Rain* | Wind** | Luminosity | Snow |
|---|---|---|---|---|---|---|---|
| 1777953267 | 12.22° C | 88% | 1000 hPa | - | - | - | - |
| 1777952366 | 11.11° C | 92% | 999.8 hPa | - | - | - | - |
| 1777951466 | 11.11° C | 90% | 999.7 hPa | - | - | - | - |
| 1777950566 | 10.56° C | 92% | 999.8 hPa | - | - | - | - |
| 1777949666 | 11.11° C | 89% | 999.7 hPa | - | - | - | - |
| 1777948766 | 11.11° C | 92% | 999.7 hPa | - | - | - | - |
| 1777947866 | 11.67° C | 89% | 999.8 hPa | - | - | - | - |
| 1777946966 | 11.67° C | 92% | 999.9 hPa | - | - | - | - |
| 1777946066 | 11.67° C | 89% | 1000 hPa | - | - | - | - |
| 1777945166 | 11.67° C | 87% | 999.8 hPa | - | - | - | - |
| 1777944266 | 12.22° C | 86% | 999.9 hPa | - | - | - | - |
| 1777943365 | 12.22° C | 86% | 999.9 hPa | - | - | - | - |
| 1777942465 | 12.22° C | 87% | 1000 hPa | - | - | - | - |
| 1777941565 | 12.22° C | 89% | 999.9 hPa | - | - | - | - |
| 1777940665 | 11.67° C | 86% | 1000 hPa | - | - | - | - |
| 1777939765 | 12.78° C | 84% | 1000.1 hPa | - | - | - | - |
| 1777938865 | 12.78° C | 82% | 999.9 hPa | - | - | - | - |
| 1777937965 | 13.33° C | 79% | 1000 hPa | - | - | - | - |
| 1777937065 | 13.89° C | 77% | 1000.1 hPa | - | - | - | - |
| 1777936165 | 14.44° C | 76% | 1000.1 hPa | - | - | - | - |
| 1777935265 | 14.44° C | 75% | 1000.1 hPa | - | - | - | - |
| 1777934364 | 15° C | 73% | 1000.1 hPa | - | - | - | - |
| 1777933464 | 15.56° C | 70% | 1000.1 hPa | - | - | - | - |
| 1777932564 | 16.11° C | 67% | 1000 hPa | - | - | - | - |
| 1777931664 | 16.11° C | 66% | 1000 hPa | - | - | - | - |
* Rain since midnight (hover to see other rain measurements)
** Current wind speed in m/s (hover to see current wind gust speed)